Time;durP1;ratioP1;P1;durP2;ratioP2;P2;SDS_P1;SDS_P2;PMS_P1;PMS_P2;Temp;Humidity;BMP_temperature;BMP_pressure;BME280_temperature;BME280_humidity;BME280_pressure;Samples;Min_cycle;Max_cycle;Signal;HPM_P1;HPM_P2
2023/04/24 00:05:06;;;;;;;0.90;0.60;;;;;;;10.60;100.00;97237.16;15285830;19;20365;-75
2023/04/24 00:10:31;;;;;;;0.88;0.70;;;;;;;10.57;100.00;97260.97;15282821;19;20022;-75
2023/04/24 00:15:55;;;;;;;0.60;0.60;;;;;;;10.58;100.00;97259.94;15283743;19;20038;-75
2023/04/24 00:21:25;;;;;;;0.70;0.70;;;;;;;10.57;100.00;97253.72;15283495;19;20053;-75
2023/04/24 00:26:49;;;;;;;0.65;0.60;;;;;;;10.56;100.00;97241.28;15284551;19;20030;-75
2023/04/24 00:32:14;;;;;;;0.60;0.60;;;;;;;10.57;100.00;97242.09;15281812;19;20721;-75
2023/04/24 00:37:41;;;;;;;0.60;0.60;;;;;;;10.53;100.00;97240.81;15286196;19;20039;-75
2023/04/24 00:43:07;;;;;;;0.80;0.50;;;;;;;10.55;100.00;97233.38;15280088;19;20536;-75
2023/04/24 00:48:32;;;;;;;1.17;0.52;;;;;;;10.50;100.00;97223.19;15281437;19;20028;-75
2023/04/24 00:53:59;;;;;;;1.17;0.60;;;;;;;10.43;100.00;97233.06;15278442;19;20006;-75
2023/04/24 00:59:31;;;;;;;0.95;0.70;;;;;;;10.35;100.00;97227.75;15281484;19;20074;-75
2023/04/24 01:04:56;;;;;;;1.00;0.60;;;;;;;10.25;100.00;97217.28;15286225;19;20106;-75
2023/04/24 01:10:24;;;;;;;1.13;0.70;;;;;;;10.17;100.00;97231.69;15280393;19;20481;-75
2023/04/24 01:15:49;;;;;;;1.60;0.73;;;;;;;10.02;100.00;97237.91;15286172;19;20037;-75
2023/04/24 01:21:16;;;;;;;1.40;0.70;;;;;;;9.90;100.00;97247.47;15301050;19;20046;-76
2023/04/24 01:26:44;;;;;;;1.10;0.98;;;;;;;9.86;100.00;97257.78;15348641;19;20028;-79
2023/04/24 01:32:08;;;;;;;2.25;1.00;;;;;;;9.80;100.00;97255.84;15286775;19;20014;-78
2023/04/24 01:37:40;;;;;;;1.33;0.91;;;;;;;9.70;100.00;97266.84;15155344;19;10002652;-78
2023/04/24 01:43:07;;;;;;;1.25;0.90;;;;;;;9.70;100.00;97276.78;15299028;19;20810;-78
2023/04/24 01:48:32;;;;;;;1.65;0.80;;;;;;;9.71;100.00;97270.38;15298004;19;20010;-79
2023/04/24 01:53:57;;;;;;;0.82;0.80;;;;;;;9.71;100.00;97267.69;15290530;19;20062;-79
2023/04/24 01:59:34;;;;;;;1.10;1.00;;;;;;;9.74;100.00;97256.56;15282264;19;20018;-77
2023/04/24 02:05:00;;;;;;;0.95;0.95;;;;;;;9.72;100.00;97261.28;15296020;19;20029;-77
2023/04/24 02:10:25;;;;;;;1.10;1.00;;;;;;;9.71;100.00;97259.63;15296362;19;20014;-77
2023/04/24 02:15:52;;;;;;;1.23;1.00;;;;;;;9.73;100.00;97246.00;15299513;19;20033;-77
2023/04/24 02:21:18;;;;;;;1.10;1.00;;;;;;;9.66;100.00;97233.28;15298507;19;20025;-78
2023/04/24 02:26:49;;;;;;;1.13;0.88;;;;;;;9.64;100.00;97221.03;15306695;19;20046;-77
2023/04/24 02:32:17;;;;;;;0.80;0.80;;;;;;;9.64;100.00;97229.13;15299992;19;20103;-79
2023/04/24 02:37:41;;;;;;;2.70;0.80;;;;;;;9.50;100.00;97226.22;15299757;19;20101;-77
2023/04/24 02:43:06;;;;;;;1.20;0.80;;;;;;;9.52;100.00;97232.25;15292238;19;20010;-77
2023/04/24 02:48:33;;;;;;;1.40;0.90;;;;;;;9.54;100.00;97216.78;15293423;19;20073;-79
2023/04/24 02:53:58;;;;;;;1.17;0.73;;;;;;;9.56;100.00;97216.59;15286660;19;20376;-77
2023/04/24 02:59:29;;;;;;;1.55;0.70;;;;;;;9.58;100.00;97194.91;15291135;19;20038;-79
2023/04/24 03:04:57;;;;;;;1.23;0.70;;;;;;;9.60;100.00;97192.84;15301367;19;20694;-78
2023/04/24 03:10:22;;;;;;;2.58;0.70;;;;;;;9.60;100.00;97190.16;15292902;19;20483;-78
2023/04/24 03:15:47;;;;;;;1.13;0.57;;;;;;;9.59;100.00;97180.41;15290716;19;20362;-77
2023/04/24 03:21:14;;;;;;;1.60;0.60;;;;;;;9.59;100.00;97177.72;15288476;19;20496;-77
2023/04/24 03:26:39;;;;;;;0.63;0.45;;;;;;;9.59;100.00;97172.34;15292643;19;20622;-77
2023/04/24 03:32:23;;;;;;;1.08;0.60;;;;;;;9.62;100.00;97175.53;15288720;19;20549;-77
2023/04/24 03:37:51;;;;;;;0.40;0.40;;;;;;;9.62;100.00;97182.75;15291356;19;20431;-78
2023/04/24 03:43:39;;;;;;;0.52;0.50;;;;;;;9.66;100.00;97182.19;15288697;19;20014;-78
2023/04/24 03:49:04;;;;;;;1.05;0.68;;;;;;;9.69;100.00;97178.31;15286553;19;20038;-77
2023/04/24 03:54:34;;;;;;;0.80;0.65;;;;;;;9.69;100.00;97187.19;15290291;19;20015;-77
2023/04/24 04:00:07;;;;;;;1.13;0.80;;;;;;;9.67;100.00;97188.41;15287273;19;20846;-78
2023/04/24 04:05:38;;;;;;;1.95;0.65;;;;;;;9.66;100.00;97186.75;15290469;19;20093;-78
2023/04/24 04:11:05;;;;;;;1.83;0.90;;;;;;;9.65;100.00;97185.06;15286631;19;20019;-77
2023/04/24 04:16:30;;;;;;;0.85;0.60;;;;;;;9.58;100.00;97190.34;15289098;19;20453;-78
2023/04/24 04:21:56;;;;;;;1.98;0.80;;;;;;;9.57;100.00;97188.69;15286197;19;20803;-78
2023/04/24 04:27:31;;;;;;;1.25;0.70;;;;;;;9.58;100.00;97182.28;15286197;19;20207;-77
2023/04/24 04:32:57;;;;;;;0.85;0.68;;;;;;;9.63;100.00;97187.09;15283676;19;20010;-77
2023/04/24 04:38:22;;;;;;;2.25;0.65;;;;;;;9.63;100.00;97187.09;15285139;19;20035;-77
2023/04/24 04:44:01;;;;;;;0.85;0.57;;;;;;;9.67;100.00;97174.97;15286381;19;20014;-77
2023/04/24 04:55:14;;;;;;;0.88;0.60;;;;;;;9.74;100.00;97167.81;15353480;19;19975;-76
2023/04/24 05:00:41;;;;;;;1.30;0.50;;;;;;;9.81;100.00;97179.50;15297741;19;20047;-76
2023/04/24 05:06:11;;;;;;;1.85;0.70;;;;;;;9.83;100.00;97185.50;15286468;19;20026;-77
2023/04/24 05:11:42;;;;;;;0.68;0.60;;;;;;;9.92;100.00;97188.13;15276857;19;20010;-77
2023/04/24 05:17:11;;;;;;;;;;;;;;;9.98;100.00;97181.97;15287276;19;20960;-77
2023/04/24 05:22:38;;;;;;;0.60;0.60;;;;;;;10.05;100.00;97190.13;15280427;19;20454;-77
2023/04/24 05:28:04;;;;;;;1.08;0.60;;;;;;;10.10;100.00;97185.84;15280600;19;20386;-77
2023/04/24 05:33:40;;;;;;;1.23;0.63;;;;;;;10.16;100.00;97178.88;15277467;19;20018;-76
2023/04/24 05:39:07;;;;;;;0.90;0.60;;;;;;;10.27;100.00;97177.56;15306706;19;20010;-78
2023/04/24 05:44:32;;;;;;;2.83;0.70;;;;;;;10.35;100.00;97174.75;15312635;19;20019;-77
2023/04/24 05:50:00;;;;;;;3.28;0.60;;;;;;;10.38;100.00;97165.47;15311459;19;20014;-78
2023/04/24 05:55:25;;;;;;;2.22;0.50;;;;;;;10.41;100.00;97155.16;15315670;19;20018;-78
2023/04/24 06:00:58;;;;;;;1.23;0.60;;;;;;;10.44;100.00;97146.69;15312313;19;20078;-78
2023/04/24 06:06:27;;;;;;;2.47;0.70;;;;;;;10.53;100.00;97162.72;15313267;19;20015;-78
2023/04/24 06:11:53;;;;;;;1.55;0.60;;;;;;;10.65;100.00;97166.56;15312895;19;20011;-77
2023/04/24 06:17:30;;;;;;;1.27;0.65;;;;;;;10.80;100.00;97177.28;15313636;19;20066;-78
2023/04/24 06:22:59;;;;;;;3.67;0.50;;;;;;;10.92;100.00;97180.28;15308924;19;20022;-77
2023/04/24 06:28:24;;;;;;;2.50;0.60;;;;;;;10.98;100.00;97160.66;15312017;19;20017;-77
2023/04/24 06:33:48;;;;;;;1.90;0.70;;;;;;;11.13;100.00;97154.31;15306842;19;20014;-77
2023/04/24 06:39:16;;;;;;;1.33;0.63;;;;;;;11.23;100.00;97154.84;15312711;19;20039;-77
2023/04/24 06:44:40;;;;;;;2.70;0.70;;;;;;;11.35;100.00;97141.63;15317515;19;20018;-78
2023/04/24 06:50:06;;;;;;;1.25;0.57;;;;;;;11.52;100.00;97131.34;15303783;19;20031;-77
2023/04/24 06:55:33;;;;;;;1.75;0.50;;;;;;;11.67;100.00;97115.03;15304786;19;20074;-76
2023/04/24 07:01:04;;;;;;;0.65;0.40;;;;;;;11.80;100.00;97106.16;15300338;19;20369;-77
2023/04/24 07:06:30;;;;;;;2.90;0.40;;;;;;;11.86;100.00;97111.59;15280292;19;20018;-77
2023/04/24 07:11:58;;;;;;;0.63;0.40;;;;;;;11.80;100.00;97106.16;15292927;19;20355;-76
2023/04/24 07:17:23;;;;;;;1.02;0.30;;;;;;;11.85;100.00;97092.88;15297389;19;20034;-77
2023/04/24 07:22:48;;;;;;;2.33;0.30;;;;;;;11.93;100.00;97111.63;15308158;19;20015;-78
2023/04/24 07:28:17;;;;;;;2.05;0.40;;;;;;;11.97;100.00;97085.88;15324405;19;20010;-76
2023/04/24 07:33:41;;;;;;;0.22;0.20;;;;;;;12.13;100.00;97084.69;15292356;19;20018;-76
2023/04/24 07:39:06;;;;;;;2.35;0.40;;;;;;;12.17;100.00;97091.34;15295408;19;20022;-77
2023/04/24 07:44:33;;;;;;;2.63;0.35;;;;;;;12.27;100.00;97085.56;15294645;19;20352;-77
2023/04/24 07:49:58;;;;;;;1.52;0.40;;;;;;;12.32;100.00;97085.78;15290719;19;20014;-77
2023/04/24 07:55:23;;;;;;;1.38;0.32;;;;;;;12.55;100.00;97098.06;15295217;19;20016;-77
2023/04/24 08:00:57;;;;;;;0.82;0.40;;;;;;;12.45;100.00;97106.59;15290285;19;20025;-77
2023/04/24 08:06:22;;;;;;;0.30;0.30;;;;;;;12.41;100.00;97109.88;15293088;19;20014;-77
2023/04/24 08:11:46;;;;;;;0.82;0.40;;;;;;;12.70;100.00;97111.34;15288292;19;20010;-76
2023/04/24 08:17:14;;;;;;;1.15;0.40;;;;;;;12.76;100.00;97107.00;15295686;19;20021;-76
2023/04/24 08:22:38;;;;;;;0.20;0.20;;;;;;;12.87;100.00;97110.94;15302282;19;20017;-76
2023/04/24 08:28:04;;;;;;;0.63;0.20;;;;;;;13.04;100.00;97109.50;15364771;19;20011;-76
2023/04/24 08:33:34;;;;;;;0.55;0.32;;;;;;;13.19;100.00;97103.84;15282105;19;20018;-76
2023/04/24 08:38:59;;;;;;;1.00;0.20;;;;;;;12.96;100.00;97109.69;15289125;19;20011;-76
2023/04/24 08:44:24;;;;;;;3.17;0.35;;;;;;;12.89;100.00;97103.47;15286199;19;20493;-76
2023/04/24 08:49:53;;;;;;;0.65;0.40;;;;;;;12.84;100.00;97128.44;15283187;19;20010;-77
2023/04/24 08:55:20;;;;;;;0.73;0.38;;;;;;;12.83;100.00;97121.34;15290183;19;20014;-76
2023/04/24 09:00:51;;;;;;;0.82;0.40;;;;;;;12.58;100.00;97123.84;15284871;19;20018;-76
2023/04/24 09:06:20;;;;;;;0.30;0.22;;;;;;;12.54;100.00;97133.38;15286972;19;20007;-77
2023/04/24 09:11:46;;;;;;;0.20;0.20;;;;;;;12.59;100.00;97134.44;15283414;19;20017;-76
2023/04/24 09:17:11;;;;;;;0.40;0.20;;;;;;;12.71;100.00;97144.63;15282359;19;20014;-76
2023/04/24 09:22:45;;;;;;;0.50;0.20;;;;;;;12.66;100.00;97166.03;15280255;19;20628;-76
2023/04/24 09:28:34;;;;;;;0.43;0.20;;;;;;;12.63;100.00;97141.09;15286041;19;20017;-76
2023/04/24 09:34:07;;;;;;;0.50;0.20;;;;;;;12.78;100.00;97142.75;15161040;19;20026;-75
2023/04/24 09:39:35;;;;;;;0.50;0.32;;;;;;;12.81;100.00;97142.34;15283943;19;20022;-76
2023/04/24 09:44:59;;;;;;;0.50;0.20;;;;;;;12.91;100.00;97150.88;15283256;19;20369;-76
2023/04/24 09:50:34;;;;;;;0.57;0.25;;;;;;;12.84;100.00;97150.03;15280673;19;20654;-76
2023/04/24 09:56:01;;;;;;;0.20;0.20;;;;;;;12.83;100.00;97156.50;15282554;19;20578;-76
2023/04/24 10:01:42;;;;;;;0.32;0.20;;;;;;;12.75;100.00;97152.13;15281593;19;20021;-76
2023/04/24 10:07:09;;;;;;;0.97;0.40;;;;;;;12.64;100.00;97153.53;15283130;19;20349;-76
2023/04/24 10:12:36;;;;;;;0.30;0.30;;;;;;;12.66;100.00;97160.63;15279303;19;20297;-76
2023/04/24 10:18:02;;;;;;;0.38;0.30;;;;;;;12.76;100.00;97185.34;15283756;19;20024;-77
2023/04/24 10:23:28;;;;;;;0.65;0.32;;;;;;;12.85;100.00;97172.47;15283062;19;20011;-77
2023/04/24 10:29:00;;;;;;;0.77;0.25;;;;;;;12.67;100.00;97186.59;15293770;19;20015;-76
2023/04/24 10:34:28;;;;;;;1.20;0.30;;;;;;;12.89;100.00;97163.75;15295030;19;20054;-75
2023/04/24 10:39:54;;;;;;;1.85;0.30;;;;;;;12.80;100.00;97173.09;15296155;19;20495;-76
2023/04/24 10:45:29;;;;;;;1.23;0.30;;;;;;;12.93;100.00;97170.41;15295615;19;20017;-76
2023/04/24 10:50:56;;;;;;;0.68;0.30;;;;;;;13.36;100.00;97190.78;15289407;19;20033;-75
2023/04/24 10:56:20;;;;;;;0.57;0.30;;;;;;;13.05;100.00;97186.03;15295327;19;20019;-76
2023/04/24 11:02:02;;;;;;;0.28;0.20;;;;;;;12.83;100.00;97183.50;15293125;19;20018;-76
2023/04/24 11:07:28;;;;;;;1.40;0.30;;;;;;;12.76;100.00;97198.88;15295600;19;20049;-76
2023/04/24 11:12:52;;;;;;;0.73;0.30;;;;;;;12.87;100.00;97184.78;15291825;19;20035;-76
2023/04/24 11:18:20;;;;;;;0.95;0.30;;;;;;;13.12;100.00;97189.53;15293307;19;20472;-75
2023/04/24 11:23:45;;;;;;;0.20;0.20;;;;;;;13.32;100.00;97188.72;15290146;19;20010;-75
2023/04/24 11:29:11;;;;;;;0.75;0.22;;;;;;;13.44;97.93;97181.66;15297882;19;20499;-75
2023/04/24 11:34:41;;;;;;;0.63;0.20;;;;;;;13.37;94.21;97197.03;15295350;19;20392;-76
2023/04/24 11:40:09;;;;;;;1.15;0.40;;;;;;;13.14;90.79;97203.69;15296691;19;20018;-77
2023/04/24 11:45:36;;;;;;;2.25;0.30;;;;;;;13.15;96.83;97212.66;15295534;19;20006;-76
2023/04/24 11:51:07;;;;;;;0.60;0.30;;;;;;;13.20;100.00;97213.69;15291081;19;20042;-75
2023/04/24 11:56:36;;;;;;;0.30;0.30;;;;;;;13.38;100.00;97206.81;15293370;19;20017;-76
2023/04/24 12:02:17;;;;;;;0.68;0.30;;;;;;;13.46;91.04;97205.78;15352382;19;20047;-78
2023/04/24 12:07:45;;;;;;;2.03;0.30;;;;;;;13.33;80.60;97199.31;15316771;19;20014;-76
2023/04/24 12:13:09;;;;;;;0.63;0.20;;;;;;;13.77;99.36;97207.84;15298106;19;20281;-77
2023/04/24 12:18:34;;;;;;;0.60;0.22;;;;;;;14.10;95.17;97212.31;15293522;19;20021;-76
2023/04/24 12:24:04;;;;;;;0.50;0.22;;;;;;;14.20;75.73;97211.03;15286082;19;20032;-76
2023/04/24 12:29:29;;;;;;;0.25;0.20;;;;;;;14.11;87.09;97207.75;15290360;19;20111;-77
2023/04/24 12:34:54;;;;;;;0.20;0.20;;;;;;;13.74;83.53;97197.41;15289557;19;20017;-76
2023/04/24 12:40:23;;;;;;;0.50;0.30;;;;;;;13.87;85.93;97208.22;15289649;19;20481;-78
2023/04/24 12:45:47;;;;;;;0.70;0.30;;;;;;;14.29;84.97;97205.16;15288482;19;20018;-78
2023/04/24 12:51:13;;;;;;;1.45;0.30;;;;;;;14.40;87.28;97206.38;15287020;19;20014;-78
2023/04/24 12:56:40;;;;;;;0.20;0.20;;;;;;;14.79;100.00;97209.91;15288649;19;20032;-78
2023/04/24 13:02:12;;;;;;;0.25;0.20;;;;;;;14.36;84.53;97220.53;15284143;19;20024;-78
2023/04/24 13:07:42;;;;;;;1.15;0.28;;;;;;;14.30;75.47;97216.81;15288091;19;20345;-78
2023/04/24 13:13:11;;;;;;;0.25;0.22;;;;;;;14.38;72.85;97219.28;15283222;19;20086;-78
2023/04/24 13:18:35;;;;;;;0.22;0.20;;;;;;;13.91;85.08;97219.44;15286309;19;20024;-78
2023/04/24 13:23:59;;;;;;;0.80;0.30;;;;;;;13.82;94.96;97245.09;15281419;19;20074;-77
2023/04/24 13:29:26;;;;;;;0.65;0.28;;;;;;;13.32;86.48;97234.72;15286158;19;20085;-78
2023/04/24 13:34:51;;;;;;;1.23;0.28;;;;;;;13.33;100.00;97222.84;15286031;19;20015;-77
2023/04/24 13:40:17;;;;;;;0.60;0.20;;;;;;;13.34;100.00;97227.22;15285422;19;20010;-78
2023/04/24 13:45:45;;;;;;;0.20;0.20;;;;;;;13.26;100.00;97222.84;15287413;19;20018;-77
2023/04/24 13:51:10;;;;;;;0.40;0.40;;;;;;;13.01;100.00;97233.41;15289979;19;20013;-79
2023/04/24 13:56:36;;;;;;;0.90;0.40;;;;;;;12.64;100.00;97258.91;15292427;19;20015;-79
2023/04/24 14:02:09;;;;;;;0.52;0.35;;;;;;;12.29;100.00;97263.56;15296126;19;20370;-77
2023/04/24 14:07:34;;;;;;;0.40;0.30;;;;;;;12.18;100.00;97263.13;15302441;19;20011;-77
2023/04/24 14:12:59;;;;;;;1.55;0.20;;;;;;;12.88;100.00;97267.50;15299774;19;20022;-78
2023/04/24 14:18:27;;;;;;;1.75;0.20;;;;;;;13.36;100.00;97271.09;15304577;19;20024;-78
2023/04/24 14:23:52;;;;;;;0.40;0.20;;;;;;;13.24;100.00;97263.59;15302506;19;20090;-79
2023/04/24 14:29:17;;;;;;;0.10;0.10;;;;;;;13.65;100.00;97258.22;15304933;19;20006;-77
2023/04/24 14:34:45;;;;;;;0.50;0.10;;;;;;;13.62;100.00;97266.75;15298818;19;20081;-78
2023/04/24 14:40:10;;;;;;;0.20;0.10;;;;;;;13.81;100.00;97256.97;15305540;19;20098;-77
2023/04/24 14:45:55;;;;;;;0.00;0.00;;;;;;;13.35;100.00;97267.56;15304826;19;20018;-77
2023/04/24 14:51:22;;;;;;;0.10;0.00;;;;;;;12.84;100.00;97268.13;15298421;19;20489;-76
2023/04/24 14:56:48;;;;;;;0.00;0.00;;;;;;;12.61;100.00;97262.03;15307373;19;20011;-78
2023/04/24 15:02:19;;;;;;;0.20;0.10;;;;;;;12.50;100.00;97281.53;15306577;19;20481;-77
2023/04/24 15:07:46;;;;;;;0.10;0.10;;;;;;;12.32;100.00;97277.50;15310925;19;21013;-77
2023/04/24 15:13:11;;;;;;;0.77;0.10;;;;;;;13.01;100.00;97293.75;15304962;19;20284;-78
2023/04/24 15:18:36;;;;;;;0.00;0.00;;;;;;;13.16;100.00;97300.84;15313355;19;20030;-77
2023/04/24 15:24:04;;;;;;;0.17;0.10;;;;;;;12.83;100.00;97294.31;15300634;19;20086;-77
2023/04/24 15:29:28;;;;;;;1.02;0.10;;;;;;;12.64;100.00;97304.03;15297298;19;20034;-77
2023/04/24 15:34:54;;;;;;;1.75;0.10;;;;;;;12.93;100.00;97316.38;15311093;19;20015;-76
2023/04/24 15:40:28;;;;;;;0.08;0.08;;;;;;;12.75;100.00;97311.56;15356641;19;20026;-79
2023/04/24 15:45:54;;;;;;;0.10;0.10;;;;;;;12.48;100.00;97334.94;15298848;19;20014;-77
2023/04/24 15:51:19;;;;;;;0.00;0.00;;;;;;;12.55;100.00;97324.97;15285811;19;20021;-76
2023/04/24 15:56:54;;;;;;;0.30;0.10;;;;;;;12.28;100.00;97335.66;15290929;19;20757;-77
2023/04/24 16:02:26;;;;;;;0.15;0.10;;;;;;;12.44;100.00;97341.75;15296260;19;20070;-79
2023/04/24 16:07:51;;;;;;;0.20;0.10;;;;;;;12.32;100.00;97339.63;15301441;19;20034;-77
2023/04/24 16:13:19;;;;;;;0.15;0.03;;;;;;;12.24;100.00;97339.78;15295055;19;20017;-78
2023/04/24 16:18:52;;;;;;;0.20;0.10;;;;;;;11.82;100.00;97369.38;15309955;19;20050;-80
2023/04/24 16:24:17;;;;;;;0.00;0.00;;;;;;;11.57;100.00;97371.66;15305525;19;20022;-78
2023/04/24 16:29:44;;;;;;;1.08;0.20;;;;;;;11.33;100.00;97381.81;15310796;19;20014;-77
2023/04/24 16:35:10;;;;;;;0.10;0.10;;;;;;;11.15;100.00;97382.22;15309899;19;20006;-78
2023/04/24 16:40:34;;;;;;;0.10;0.10;;;;;;;11.23;100.00;97367.81;15307617;19;20082;-80
2023/04/24 16:46:03;;;;;;;1.38;0.20;;;;;;;11.32;100.00;97385.53;15316477;19;20017;-78
2023/04/24 16:51:28;;;;;;;1.55;0.20;;;;;;;11.32;100.00;97385.53;15335829;19;20025;-78
2023/04/24 16:56:53;;;;;;;0.10;0.10;;;;;;;11.22;100.00;97377.72;15293177;19;20021;-78
2023/04/24 17:02:28;;;;;;;0.20;0.20;;;;;;;11.19;100.00;97379.97;15290537;19;20024;-81
2023/04/24 17:07:53;;;;;;;0.43;0.30;;;;;;;10.88;100.00;97384.63;15292004;19;20022;-80
2023/04/24 17:13:18;;;;;;;0.73;0.40;;;;;;;10.74;100.00;97399.78;15291440;19;20011;-78
2023/04/24 17:18:45;;;;;;;0.30;0.30;;;;;;;10.54;100.00;97398.66;15302266;19;20369;-77
2023/04/24 17:24:10;;;;;;;0.45;0.30;;;;;;;10.56;100.00;97413.63;15299066;19;20604;-80
2023/04/24 17:29:35;;;;;;;0.60;0.50;;;;;;;10.41;100.00;97432.47;15297588;19;20014;-78
2023/04/24 17:35:04;;;;;;;0.52;0.52;;;;;;;10.38;100.00;97430.16;15288913;19;20018;-76
2023/04/24 17:40:30;;;;;;;0.70;0.50;;;;;;;10.29;100.00;97442.00;15287978;19;20019;-77
2023/04/24 17:45:55;;;;;;;0.60;0.60;;;;;;;10.20;100.00;97452.00;15293534;19;20014;-75
2023/04/24 17:51:23;;;;;;;0.50;0.50;;;;;;;10.21;100.00;97452.84;15293249;19;20042;-77
2023/04/24 17:56:56;;;;;;;0.60;0.60;;;;;;;10.11;100.00;97456.63;15363189;19;20025;-77
2023/04/24 18:02:27;;;;;;;0.50;0.50;;;;;;;10.01;100.00;97450.66;15361525;19;20010;-80
2023/04/24 18:07:54;;;;;;;1.00;0.60;;;;;;;9.96;100.00;97458.44;15348532;19;20015;-77
2023/04/24 18:13:19;;;;;;;1.00;0.70;;;;;;;9.86;100.00;97472.97;15266174;19;20365;-77
2023/04/24 18:18:43;;;;;;;0.93;0.43;;;;;;;9.74;100.00;97482.47;15279722;19;20042;-76
2023/04/24 18:24:11;;;;;;;2.47;0.70;;;;;;;9.69;100.00;97477.63;15272928;19;20024;-77
2023/04/24 18:29:35;;;;;;;0.50;0.50;;;;;;;9.64;100.00;97489.94;15277716;19;20109;-77
2023/04/24 18:35:01;;;;;;;0.73;0.63;;;;;;;9.59;100.00;97498.56;15280287;19;20022;-78
2023/04/24 18:40:30;;;;;;;1.00;0.68;;;;;;;9.54;100.00;97500.94;15280506;19;20018;-76
2023/04/24 18:45:55;;;;;;;1.30;0.77;;;;;;;9.49;100.00;97511.41;15292241;19;20013;-75
2023/04/24 18:51:24;;;;;;;2.42;0.60;;;;;;;9.43;100.00;97512.09;15330961;19;20010;-79
2023/04/24 18:56:44;;;;;;;1.00;0.70;;;;;;;9.23;100.00;97518.72;15314654;19;20014;-77
2023/04/24 19:02:33;;;;;;;1.40;0.70;;;;;;;9.03;100.00;97525.53;15284474;19;20299;-77
2023/04/24 19:08:04;;;;;;;;;;;;;;;8.81;100.00;97535.19;15290230;19;20508;-76
2023/04/24 19:13:32;;;;;;;1.05;0.70;;;;;;;8.71;100.00;97538.88;15284936;19;19929;-77
2023/04/24 19:18:57;;;;;;;1.50;1.00;;;;;;;8.52;100.00;97537.44;15287247;19;20021;-77
2023/04/24 19:24:22;;;;;;;1.00;0.88;;;;;;;8.39;100.00;97540.59;15289027;19;20010;-77
2023/04/24 19:29:50;;;;;;;1.00;0.88;;;;;;;8.28;100.00;97539.09;15290654;19;20030;-79
2023/04/24 19:35:16;;;;;;;1.13;1.00;;;;;;;8.17;100.00;97542.13;15285584;19;20009;-78
2023/04/24 19:40:41;;;;;;;1.45;1.00;;;;;;;8.15;100.00;97549.50;15293800;19;20028;-78
2023/04/24 19:46:09;;;;;;;1.25;1.00;;;;;;;8.14;100.00;97553.19;15302902;19;20322;-80
2023/04/24 19:51:38;;;;;;;1.50;1.10;;;;;;;8.19;100.00;97548.13;15271455;19;20031;-79
2023/04/24 19:57:03;;;;;;;1.73;1.00;;;;;;;8.25;100.00;97544.81;15294597;19;20014;-78
2023/04/24 20:02:32;;;;;;;1.98;1.00;;;;;;;8.29;100.00;97543.44;15293889;19;20018;-80
2023/04/24 20:07:57;;;;;;;1.42;1.05;;;;;;;8.22;100.00;97545.13;15296185;19;20078;-82
2023/04/24 20:13:22;;;;;;;1.42;1.00;;;;;;;8.18;100.00;97544.63;15298903;19;20750;-81
2023/04/24 20:18:49;;;;;;;1.67;1.02;;;;;;;8.13;100.00;97541.59;15298958;19;20089;-81
2023/04/24 20:24:15;;;;;;;1.60;1.05;;;;;;;8.11;100.00;97548.16;15289660;19;20353;-79
2023/04/24 20:29:39;;;;;;;1.92;1.10;;;;;;;8.05;100.00;97548.81;15296351;19;20042;-80
2023/04/24 20:35:07;;;;;;;2.22;1.10;;;;;;;7.94;100.00;97540.06;15292406;19;20018;-78
2023/04/24 20:40:32;;;;;;;2.45;1.30;;;;;;;7.88;100.00;97551.47;15294587;19;20007;-77
2023/04/24 20:46:14;;;;;;;4.23;1.30;;;;;;;7.90;100.00;97551.31;15296298;19;20248;-79
2023/04/24 20:51:42;;;;;;;2.20;1.23;;;;;;;7.88;100.00;97548.81;15297477;19;20085;-78
2023/04/24 20:57:09;;;;;;;1.70;1.00;;;;;;;7.72;100.00;97547.75;15293881;19;20036;-80
2023/04/24 21:02:41;;;;;;;3.30;1.40;;;;;;;7.59;100.00;97549.25;15297285;19;20025;-79
2023/04/24 21:08:09;;;;;;;1.50;1.10;;;;;;;7.52;100.00;97549.06;15320902;19;20007;-79
2023/04/24 21:13:35;;;;;;;1.95;1.20;;;;;;;7.58;100.00;97544.88;15341405;19;20014;-77
2023/04/24 21:19:00;;;;;;;2.85;1.30;;;;;;;7.57;100.00;97538.69;15293586;19;20361;-78
2023/04/24 21:24:27;;;;;;;2.72;1.30;;;;;;;7.56;100.00;97551.25;15294897;19;20367;-78
2023/04/24 21:29:52;;;;;;;2.40;1.35;;;;;;;7.59;100.00;97544.72;15287714;19;20018;-78
2023/04/24 21:35:17;;;;;;;1.50;1.00;;;;;;;7.54;100.00;97547.88;15291518;19;20014;-78
2023/04/24 21:40:44;;;;;;;4.85;1.23;;;;;;;7.44;100.00;97538.31;15293353;19;20014;-78
2023/04/24 21:46:10;;;;;;;4.20;1.50;;;;;;;7.37;100.00;97543.50;15293433;19;20014;-78
2023/04/24 21:51:34;;;;;;;2.67;1.40;;;;;;;7.21;100.00;97542.44;15291176;19;20010;-77
2023/04/24 21:57:02;;;;;;;2.65;1.33;;;;;;;7.17;100.00;97537.56;15295398;19;20049;-78
2023/04/24 22:02:33;;;;;;;2.25;1.45;;;;;;;6.99;100.00;97533.16;15319092;19;20027;-78
2023/04/24 22:07:58;;;;;;;2.03;1.20;;;;;;;6.91;100.00;97533.09;15298208;19;20014;-78
2023/04/24 22:13:26;;;;;;;4.25;1.67;;;;;;;6.92;100.00;97529.41;15283761;19;20111;-79
2023/04/24 22:18:52;;;;;;;3.75;1.63;;;;;;;6.87;100.00;97529.91;15292043;19;20100;-77
2023/04/24 22:24:17;;;;;;;2.35;1.40;;;;;;;6.82;100.00;97526.84;15297606;19;20016;-77
2023/04/24 22:29:45;;;;;;;3.28;1.60;;;;;;;6.73;100.00;97535.84;15302564;19;20027;-78
2023/04/24 22:35:10;;;;;;;3.33;1.80;;;;;;;6.76;100.00;97528.31;15296755;19;20019;-77
2023/04/24 22:40:35;;;;;;;5.13;1.88;;;;;;;6.69;100.00;97527.28;15304944;19;20017;-78
2023/04/24 22:46:02;;;;;;;5.07;1.67;;;;;;;6.68;100.00;97528.28;15305611;19;20014;-78
2023/04/24 22:51:28;;;;;;;3.28;1.80;;;;;;;6.60;100.00;97521.06;15299707;19;20366;-78
2023/04/24 22:56:54;;;;;;;3.95;1.90;;;;;;;6.54;100.00;97518.16;15299671;19;20074;-79
2023/04/24 23:02:32;;;;;;;3.83;1.95;;;;;;;6.52;100.00;97517.50;15299158;19;20365;-77
2023/04/24 23:07:57;;;;;;;2.92;1.83;;;;;;;6.50;100.00;97524.84;15301090;19;20352;-76
2023/04/24 23:13:21;;;;;;;3.53;2.00;;;;;;;6.40;100.00;97520.44;15296598;19;20024;-78
2023/04/24 23:18:48;;;;;;;3.20;2.00;;;;;;;6.34;100.00;97515.72;15299474;19;20038;-77
2023/04/24 23:24:14;;;;;;;3.83;1.92;;;;;;;6.25;100.00;97513.97;15303057;19;20501;-78
2023/04/24 23:29:39;;;;;;;3.38;1.98;;;;;;;6.17;100.00;97512.06;15302154;19;20029;-78
2023/04/24 23:35:07;;;;;;;3.53;1.75;;;;;;;6.16;100.00;97516.59;15301754;19;20094;-77
2023/04/24 23:40:32;;;;;;;4.68;2.30;;;;;;;6.14;100.00;97502.53;15308754;19;20021;-77
2023/04/24 23:45:57;;;;;;;4.80;1.95;;;;;;;6.12;100.00;97503.66;15302765;19;20022;-76
2023/04/24 23:51:25;;;;;;;3.22;2.00;;;;;;;6.03;100.00;97500.13;15303420;19;20010;-77
2023/04/24 23:56:50;;;;;;;4.43;2.17;;;;;;;5.98;100.00;97497.03;15297661;19;20033;-79
